Time;durP1;ratioP1;P1;durP2;ratioP2;P2;SDS_P1;SDS_P2;PMS_P1;PMS_P2;Temp;Humidity;BMP_temperature;BMP_pressure;BME280_temperature;BME280_humidity;BME280_pressure;Samples;Min_cycle;Max_cycle;Signal;HPM_P1;HPM_P2
2022/01/15 00:01:09;;;;;;;2.60;0.80;;;;;;;-2.21;73.51;96087.56;5030122;28;20057;-63
2022/01/15 00:03:36;;;;;;;0.95;0.80;;;;;;;-2.30;73.83;96100.44;5030700;28;20045;-61
2022/01/15 00:06:03;;;;;;;1.98;0.80;;;;;;;-2.33;74.08;96087.50;5031885;28;20129;-62
2022/01/15 00:08:30;;;;;;;3.67;0.85;;;;;;;-2.33;73.81;96112.00;5027254;28;20049;-63
2022/01/15 00:10:57;;;;;;;1.13;0.80;;;;;;;-2.33;73.60;96105.75;5031359;28;20133;-62
2022/01/15 00:13:27;;;;;;;1.33;0.88;;;;;;;-2.35;73.31;96116.97;5031310;28;20511;-63
2022/01/15 00:16:09;;;;;;;3.55;0.80;;;;;;;-2.33;73.17;96128.34;5031470;28;20053;-62
2022/01/15 00:19:21;;;;;;;4.05;0.80;;;;;;;-2.35;72.51;96113.44;5030729;28;20041;-62
2022/01/15 00:21:26;;;;;;;;;;;;;;;-2.41;72.88;96112.88;5029773;28;20065;-61
2022/01/15 00:23:53;;;;;;;0.50;0.50;;;;;;;-2.41;72.47;96131.91;5030865;28;20019;-62
2022/01/15 00:26:20;;;;;;;1.88;0.82;;;;;;;-2.34;72.03;96115.84;5031058;28;20064;-62
2022/01/15 00:28:47;;;;;;;0.55;0.50;;;;;;;-2.33;71.51;96133.78;5030738;28;20077;-62
2022/01/15 00:31:14;;;;;;;2.38;0.63;;;;;;;-2.30;70.81;96130.38;5031134;28;20092;-62
2022/01/15 00:33:41;;;;;;;1.98;0.68;;;;;;;-2.23;70.61;96146.97;5030862;28;20057;-62
2022/01/15 00:36:08;;;;;;;2.10;0.50;;;;;;;-2.11;70.41;96125.22;5031340;28;20512;-62
2022/01/15 00:38:35;;;;;;;0.57;0.57;;;;;;;-1.98;70.21;96120.63;5032539;28;20125;-61
2022/01/15 00:41:02;;;;;;;0.75;0.40;;;;;;;-2.05;69.57;96123.91;5034719;28;20140;-62
2022/01/15 00:43:29;;;;;;;0.75;0.70;;;;;;;-2.10;69.19;96129.53;5034741;28;20552;-61
2022/01/15 00:45:57;;;;;;;3.50;0.50;;;;;;;-2.04;68.65;96147.25;5034449;28;20049;-62
2022/01/15 00:48:25;;;;;;;1.00;0.50;;;;;;;-1.92;68.76;96139.13;5034913;28;20082;-61
2022/01/15 00:50:53;;;;;;;0.40;0.40;;;;;;;-1.88;67.97;96144.72;5034553;28;20056;-62
2022/01/15 00:53:20;;;;;;;26.45;7.45;;;;;;;-1.83;67.73;96153.47;5034653;28;20420;-61
2022/01/15 00:55:47;;;;;;;0.82;0.60;;;;;;;-1.86;68.04;96153.34;5030505;28;20057;-62
2022/01/15 00:58:14;;;;;;;1.45;0.82;;;;;;;-2.02;68.66;96161.34;5034406;28;20077;-61
2022/01/15 01:00:41;;;;;;;0.47;0.40;;;;;;;-2.13;69.32;96154.72;5034031;28;20072;-61
2022/01/15 01:03:08;;;;;;;0.40;0.40;;;;;;;-2.21;71.66;96169.22;5034164;28;20147;-62
2022/01/15 01:05:35;;;;;;;1.55;0.80;;;;;;;-2.35;73.79;96157.78;5034027;28;20050;-61
2022/01/15 01:08:02;;;;;;;1.90;0.70;;;;;;;-2.42;75.17;96162.97;5029335;28;20052;-62
2022/01/15 01:23:34;;;;;;;0.80;0.60;;;;;;;-2.30;73.87;96171.22;5033523;28;20135;-62
2022/01/15 01:26:09;;;;;;;1.38;0.57;;;;;;;-2.27;73.55;96165.09;5034181;28;20136;-62
2022/01/15 01:28:42;;;;;;;2.75;0.65;;;;;;;-2.26;73.34;96163.16;5033354;28;20508;-62
2022/01/15 01:31:19;;;;;;;5.20;0.80;;;;;;;-2.25;73.53;96179.16;5030300;28;20441;-62
2022/01/15 01:33:51;;;;;;;0.57;0.52;;;;;;;-2.27;73.30;96181.44;5033132;28;20075;-63
2022/01/15 01:36:25;;;;;;;0.73;0.57;;;;;;;-2.29;73.36;96175.50;5033482;28;20049;-62
2022/01/15 01:38:56;;;;;;;1.80;0.77;;;;;;;-2.23;73.37;96181.53;5033331;28;21295;-62
2022/01/15 01:41:24;;;;;;;2.97;0.80;;;;;;;-2.20;73.46;96172.72;5033942;28;20601;-61
2022/01/15 01:43:57;;;;;;;3.03;1.02;;;;;;;-2.16;73.22;96176.38;5023338;28;20521;-62
2022/01/15 01:48:53;;;;;;;2.38;0.90;;;;;;;-2.16;72.95;96193.50;5032559;28;20056;-62
2022/01/15 01:51:37;;;;;;;0.57;0.50;;;;;;;-2.13;72.90;96192.81;5033472;28;20114;-61
2022/01/15 01:54:06;;;;;;;6.57;0.98;;;;;;;-2.07;72.99;96198.88;5032804;28;20053;-61
2022/01/15 01:56:34;;;;;;;1.80;0.65;;;;;;;-2.06;72.54;96187.66;5025079;28;20057;-61
2022/01/15 01:59:03;;;;;;;3.38;0.80;;;;;;;-2.04;72.54;96190.81;5032690;28;20567;-61
2022/01/15 02:01:31;;;;;;;1.05;0.70;;;;;;;-2.02;72.47;96196.75;5032991;28;20085;-61
2022/01/15 02:03:58;;;;;;;1.58;0.90;;;;;;;-1.95;72.40;96194.25;5032781;28;20100;-61
2022/01/15 02:06:25;;;;;;;1.15;0.60;;;;;;;-1.90;72.04;96193.25;5033214;28;20111;-62
2022/01/15 02:08:54;;;;;;;1.33;0.50;;;;;;;-1.88;71.76;96194.53;5032719;28;20124;-58
2022/01/15 02:11:24;;;;;;;2.40;0.73;;;;;;;-1.97;71.86;96196.53;5033119;28;20144;-62
2022/01/15 02:13:51;;;;;;;7.20;0.77;;;;;;;-1.94;71.99;96201.31;5032717;28;20517;-62
2022/01/15 02:16:18;;;;;;;3.53;1.25;;;;;;;-1.90;71.94;96207.69;5029320;28;20049;-62
2022/01/15 02:18:45;;;;;;;5.95;0.82;;;;;;;-1.92;72.24;96206.44;5032311;28;20080;-62
2022/01/15 02:23:44;;;;;;;1.95;0.52;;;;;;;-1.98;72.75;96205.06;5032875;28;20171;-56
2022/01/15 02:26:25;;;;;;;1.80;0.93;;;;;;;-1.96;73.04;96200.03;5032685;28;20567;-58
2022/01/15 02:29:02;;;;;;;1.25;0.60;;;;;;;-1.96;73.37;96206.31;5032790;28;20084;-59
2022/01/15 02:31:30;;;;;;;4.22;0.90;;;;;;;-2.08;73.71;96200.81;5030274;28;20049;-58
2022/01/15 02:34:00;;;;;;;1.73;0.70;;;;;;;-2.12;74.13;96199.88;5031789;28;20136;-59
2022/01/15 02:36:33;;;;;;;1.15;0.70;;;;;;;-2.16;74.56;96204.38;5033015;28;20050;-59
2022/01/15 02:39:00;;;;;;;1.92;0.82;;;;;;;-2.16;74.63;96204.38;5032072;28;20049;-59
2022/01/15 02:41:30;;;;;;;2.67;1.00;;;;;;;-2.16;74.75;96204.38;5032912;28;20056;-59
2022/01/15 02:44:00;;;;;;;0.80;0.60;;;;;;;-2.17;74.87;96200.06;5023803;28;20053;-60
2022/01/15 02:48:57;;;;;;;1.58;0.90;;;;;;;-2.19;75.17;96204.25;5032062;28;20041;-56
2022/01/15 02:51:28;;;;;;;2.58;0.93;;;;;;;-2.22;75.55;96200.25;5029148;28;20492;-57
2022/01/15 02:53:56;;;;;;;1.52;0.80;;;;;;;-2.22;75.69;96216.59;5031737;28;20059;-58
2022/01/15 02:56:36;;;;;;;2.20;1.23;;;;;;;-2.19;75.70;96210.50;5032065;28;20416;-56
2022/01/15 02:59:06;;;;;;;6.30;1.05;;;;;;;-2.16;75.69;96219.94;5031873;28;20536;-57
2022/01/15 03:01:33;;;;;;;2.10;0.85;;;;;;;-2.18;75.23;96214.00;5031194;28;20524;-60
2022/01/15 03:04:01;;;;;;;5.25;0.93;;;;;;;-2.24;75.87;96218.88;5030413;28;20574;-57
2022/01/15 03:06:28;;;;;;;4.47;0.80;;;;;;;-2.30;76.11;96214.75;5028588;28;20084;-59
2022/01/15 03:08:55;;;;;;;4.93;1.33;;;;;;;-2.24;75.59;96218.06;5030872;28;20045;-60
2022/01/15 03:11:22;;;;;;;1.63;0.98;;;;;;;-2.23;75.53;96217.72;5031945;28;20049;-59
2022/01/15 03:13:50;;;;;;;1.80;0.82;;;;;;;-2.18;75.44;96222.19;5032242;28;20132;-59
2022/01/15 03:16:20;;;;;;;2.55;1.10;;;;;;;-2.14;75.90;96223.91;5031960;28;20081;-59
2022/01/15 03:18:48;;;;;;;1.98;0.85;;;;;;;-2.09;75.10;96231.88;5032506;28;20045;-58
2022/01/15 03:21:16;;;;;;;1.30;0.90;;;;;;;-2.06;75.41;96231.22;5022671;28;20080;-59
2022/01/15 03:23:43;;;;;;;3.70;0.82;;;;;;;-2.03;75.26;96236.00;5032284;28;20053;-58
2022/01/15 03:26:13;;;;;;;4.55;0.90;;;;;;;-2.04;75.24;96239.84;5031726;28;20053;-58
2022/01/15 03:28:43;;;;;;;2.42;0.88;;;;;;;-2.09;75.41;96240.06;5032328;28;20053;-58
2022/01/15 03:31:11;;;;;;;0.50;0.50;;;;;;;-2.13;75.75;96241.81;5031880;28;20056;-58
2022/01/15 03:33:38;;;;;;;3.38;0.93;;;;;;;-2.12;76.03;96242.63;5031986;28;20058;-57
2022/01/15 03:36:07;;;;;;;2.53;1.00;;;;;;;-2.12;76.05;96254.34;5031306;28;20515;-62
2022/01/15 03:38:34;;;;;;;1.60;0.85;;;;;;;-2.12;76.14;96254.34;5031701;28;20073;-61
2022/01/15 03:41:02;;;;;;;0.88;0.70;;;;;;;-2.13;76.30;96252.72;5031768;28;20064;-61
2022/01/15 03:43:29;;;;;;;1.88;0.88;;;;;;;-2.20;76.42;96244.28;5027442;28;20053;-58
2022/01/15 03:45:56;;;;;;;1.63;0.95;;;;;;;-2.21;76.46;96261.75;5028085;28;20053;-58
2022/01/15 03:48:25;;;;;;;1.67;0.90;;;;;;;-2.21;76.20;96260.97;5030215;28;20057;-57
2022/01/15 03:50:55;;;;;;;0.75;0.75;;;;;;;-2.25;76.62;96260.81;5031164;28;20132;-58
2022/01/15 03:53:23;;;;;;;2.08;0.88;;;;;;;-2.26;76.93;96272.84;5031996;28;20400;-56
2022/01/15 03:55:50;;;;;;;1.80;0.80;;;;;;;-2.30;76.69;96257.50;5022856;28;20053;-58
2022/01/15 03:58:19;;;;;;;1.27;0.80;;;;;;;-2.30;77.04;96262.94;5025350;28;20520;-55
2022/01/15 04:00:46;;;;;;;1.20;1.00;;;;;;;-2.30;77.12;96261.03;5025758;28;20058;-57
2022/01/15 04:03:13;;;;;;;1.58;0.90;;;;;;;-2.29;76.90;96265.34;5031896;28;20060;-55
2022/01/15 04:05:41;;;;;;;2.83;0.80;;;;;;;-2.28;76.81;96275.06;5031423;28;20049;-57
2022/01/15 04:08:08;;;;;;;1.38;0.93;;;;;;;-2.23;77.20;96280.34;5030624;28;20451;-58
2022/01/15 04:10:35;;;;;;;1.20;0.63;;;;;;;-2.26;77.10;96278.28;5031628;28;20095;-59
2022/01/15 04:13:03;;;;;;;1.60;1.02;;;;;;;-2.26;76.79;96272.84;5033831;28;20152;-58
2022/01/15 04:15:30;;;;;;;1.00;0.70;;;;;;;-2.25;77.01;96293.47;5034183;28;20053;-57
2022/01/15 04:17:57;;;;;;;1.58;0.80;;;;;;;-2.28;77.18;96282.47;5034522;28;20045;-57
2022/01/15 04:20:24;;;;;;;1.00;0.60;;;;;;;-2.33;77.70;96278.00;5028123;28;20497;-58
2022/01/15 04:22:52;;;;;;;0.47;0.47;;;;;;;-2.29;77.24;96291.75;5031370;28;20057;-60
2022/01/15 04:25:21;;;;;;;2.45;0.70;;;;;;;-2.28;77.26;96294.13;5035096;28;20075;-59
2022/01/15 04:27:48;;;;;;;1.27;0.82;;;;;;;-2.26;77.31;96297.34;5034432;28;20136;-59
2022/01/15 04:30:17;;;;;;;3.35;0.90;;;;;;;-2.24;77.52;96300.53;5034791;28;20053;-60
2022/01/15 04:32:44;;;;;;;1.58;0.73;;;;;;;-2.27;76.90;96306.63;5034891;28;20057;-60
2022/01/15 04:35:11;;;;;;;0.82;0.60;;;;;;;-2.28;76.98;96310.47;5035242;28;20049;-59
2022/01/15 04:37:43;;;;;;;0.88;0.75;;;;;;;-2.31;76.92;96304.91;5034490;28;20413;-60
2022/01/15 04:40:11;;;;;;;1.20;0.70;;;;;;;-2.30;76.62;96307.28;5034566;28;20497;-60
2022/01/15 04:42:38;;;;;;;2.22;0.80;;;;;;;-2.25;76.88;96315.25;5035029;28;20045;-60
2022/01/15 04:45:07;;;;;;;0.90;0.60;;;;;;;-2.27;76.41;96312.09;5031356;28;20049;-59
2022/01/15 04:47:36;;;;;;;3.58;0.80;;;;;;;-2.31;76.51;96327.47;5034386;28;20060;-60
2022/01/15 04:50:05;;;;;;;2.22;0.80;;;;;;;-2.32;76.35;96330.50;5034336;28;20103;-60
2022/01/15 04:52:34;;;;;;;1.17;0.70;;;;;;;-2.35;76.37;96334.69;5032845;28;20049;-57
2022/01/15 04:55:01;;;;;;;0.60;0.52;;;;;;;-2.32;76.60;96333.22;5027757;28;20128;-57
2022/01/15 04:57:29;;;;;;;0.77;0.60;;;;;;;-2.33;76.56;96335.16;5028419;28;20053;-57
2022/01/15 04:59:56;;;;;;;0.73;0.52;;;;;;;-2.30;76.51;96333.69;5032567;28;20084;-57
2022/01/15 05:02:23;;;;;;;1.88;0.60;;;;;;;-2.33;76.44;96329.72;5034221;28;20517;-56
2022/01/15 05:04:50;;;;;;;0.80;0.70;;;;;;;-2.28;76.66;96347.78;5034251;28;20049;-59
2022/01/15 05:07:17;;;;;;;0.52;0.50;;;;;;;-2.27;76.94;96360.28;5034484;28;20079;-55
2022/01/15 05:09:44;;;;;;;2.22;0.95;;;;;;;-2.25;76.74;96358.81;5033872;28;20050;-59
2022/01/15 05:12:25;;;;;;;3.30;0.90;;;;;;;-2.17;76.70;96365.31;5034334;28;20045;-59
2022/01/15 05:14:51;;;;;;;2.35;0.93;;;;;;;-2.17;76.57;96366.13;5033613;28;20096;-57
2022/01/15 05:17:19;;;;;;;1.20;0.60;;;;;;;-2.16;76.23;96378.63;5034330;28;20144;-58
2022/01/15 05:19:46;;;;;;;4.97;0.68;;;;;;;-2.16;76.45;96388.72;5031148;28;20041;-57
2022/01/15 05:22:13;;;;;;;2.47;1.27;;;;;;;-2.17;76.74;96370.78;5034333;28;20071;-58
2022/01/15 05:24:40;;;;;;;1.17;0.80;;;;;;;-2.10;76.83;96396.34;5033060;28;20049;-56
2022/01/15 05:27:07;;;;;;;1.23;0.80;;;;;;;-2.11;76.56;96389.31;5034328;28;20390;-57
2022/01/15 05:29:34;;;;;;;5.97;0.90;;;;;;;-2.13;76.81;96405.19;5032064;28;20057;-56
2022/01/15 05:32:01;;;;;;;1.08;0.65;;;;;;;-2.11;76.19;96402.94;5033771;28;20450;-56
2022/01/15 05:34:33;;;;;;;1.45;0.90;;;;;;;-2.14;76.53;96409.03;5033421;28;20084;-60
2022/01/15 05:37:01;;;;;;;2.03;0.80;;;;;;;-2.15;76.45;96414.81;5033955;28;20049;-59
2022/01/15 05:39:28;;;;;;;5.05;1.00;;;;;;;-2.14;76.78;96425.38;5033084;28;20084;-60
2022/01/15 05:41:56;;;;;;;0.68;0.60;;;;;;;-2.14;76.49;96428.09;5030623;28;20050;-58
2022/01/15 05:44:23;;;;;;;3.30;0.63;;;;;;;-2.12;76.21;96436.75;5028268;28;20405;-59
2022/01/15 05:46:49;;;;;;;3.28;1.13;;;;;;;-2.17;76.01;96428.75;5033368;28;20469;-59
2022/01/15 05:49:16;;;;;;;0.77;0.68;;;;;;;-2.14;75.74;96441.72;5033652;28;20045;-60
2022/01/15 05:51:43;;;;;;;1.38;0.80;;;;;;;-2.13;75.79;96448.75;5032910;28;20049;-58
2022/01/15 05:54:11;;;;;;;5.65;0.60;;;;;;;-2.10;75.75;96448.09;5033416;28;20053;-58
2022/01/15 05:56:39;;;;;;;0.88;0.68;;;;;;;-2.13;75.50;96454.19;5032627;28;20084;-57
2022/01/15 05:59:07;;;;;;;2.33;0.95;;;;;;;-2.14;75.88;96447.16;5033597;28;20042;-59
2022/01/15 06:01:35;;;;;;;2.10;0.98;;;;;;;-2.09;75.59;96457.88;5032629;28;20064;-59
2022/01/15 06:04:03;;;;;;;1.13;0.70;;;;;;;-2.03;75.44;96464.75;5033268;28;20053;-60
2022/01/15 06:06:30;;;;;;;17.85;0.82;;;;;;;-1.97;75.66;96457.97;5032643;28;20144;-58
2022/01/15 06:08:57;;;;;;;1.10;0.80;;;;;;;-1.98;75.51;96477.38;5033222;28;20055;-57
2022/01/15 06:11:24;;;;;;;2.15;1.00;;;;;;;-2.00;75.50;96474.97;5032469;28;20060;-60
2022/01/15 06:13:51;;;;;;;1.35;0.77;;;;;;;-1.98;75.26;96488.25;5033138;28;20057;-60
2022/01/15 06:16:18;;;;;;;1.17;0.77;;;;;;;-1.98;75.36;96486.31;5031200;28;20523;-60
2022/01/15 06:18:46;;;;;;;2.38;0.90;;;;;;;-1.96;75.91;96496.88;5033020;28;20041;-60
2022/01/15 06:21:13;;;;;;;1.38;0.88;;;;;;;-1.94;75.91;96500.09;5032392;28;20505;-60
2022/01/15 06:23:40;;;;;;;3.95;1.15;;;;;;;-1.91;75.79;96515.78;5032642;28;20053;-57
2022/01/15 06:26:08;;;;;;;3.25;1.00;;;;;;;-1.93;75.96;96523.47;5022788;28;20133;-59
2022/01/15 06:28:35;;;;;;;2.83;0.88;;;;;;;-1.91;76.00;96524.75;5032809;28;20048;-59
2022/01/15 06:31:02;;;;;;;4.80;0.98;;;;;;;-1.92;75.96;96519.63;5024828;28;20072;-59
2022/01/15 06:33:32;;;;;;;1.73;0.82;;;;;;;-1.97;76.19;96528.78;5032549;28;20131;-60
2022/01/15 06:35:59;;;;;;;3.35;1.13;;;;;;;-1.94;76.18;96530.06;5033110;28;20057;-61
2022/01/15 06:38:26;;;;;;;2.22;1.00;;;;;;;-1.89;75.96;96533.38;5032453;28;20079;-61
2022/01/15 06:40:53;;;;;;;0.50;0.50;;;;;;;-1.82;75.83;96530.16;5032542;28;20103;-61
2022/01/15 06:43:20;;;;;;;1.63;0.82;;;;;;;-1.83;75.75;96540.25;5032030;28;20393;-60
2022/01/15 06:45:47;;;;;;;4.68;0.95;;;;;;;-1.86;75.88;96546.34;5032848;28;20483;-60
2022/01/15 06:48:14;;;;;;;1.55;0.90;;;;;;;-1.77;75.88;96554.50;5031896;28;20049;-61
2022/01/15 06:50:42;;;;;;;1.88;0.90;;;;;;;-1.76;75.64;96547.13;5032546;28;20063;-61
2022/01/15 06:53:11;;;;;;;3.60;0.80;;;;;;;-1.76;75.85;96560.75;5032292;28;20501;-61
2022/01/15 06:55:38;;;;;;;2.70;0.82;;;;;;;-1.76;75.97;96560.75;5031921;28;20452;-60
2022/01/15 06:58:05;;;;;;;4.57;1.90;;;;;;;-1.81;76.18;96569.09;5031854;28;20520;-59
2022/01/15 07:00:32;;;;;;;1.88;0.82;;;;;;;-1.86;76.40;96572.81;5030950;28;20415;-61
2022/01/15 07:03:01;;;;;;;3.70;0.80;;;;;;;-1.78;76.07;96576.63;5031807;28;20416;-60
2022/01/15 07:05:29;;;;;;;1.15;0.80;;;;;;;-1.76;75.98;96582.53;5032335;28;20505;-60
2022/01/15 07:07:57;;;;;;;1.75;0.98;;;;;;;-1.75;76.10;96579.47;5032017;28;20472;-60
2022/01/15 07:10:24;;;;;;;1.02;0.70;;;;;;;-1.77;76.00;96586.41;5029123;28;20049;-55
2022/01/15 07:12:52;;;;;;;1.30;0.70;;;;;;;-1.76;75.66;96583.34;5031698;28;20504;-57
2022/01/15 07:15:19;;;;;;;1.77;0.75;;;;;;;-1.68;75.73;96589.88;5023626;28;20144;-58
2022/01/15 07:17:48;;;;;;;0.50;0.50;;;;;;;-1.68;75.47;96600.78;5031846;28;20132;-58
2022/01/15 07:20:17;;;;;;;1.85;0.93;;;;;;;-1.70;75.34;96592.94;5031474;28;20413;-58
2022/01/15 07:22:44;;;;;;;3.50;0.90;;;;;;;-1.50;75.26;96607.78;5032418;28;20068;-59
2022/01/15 07:25:12;;;;;;;2.70;1.27;;;;;;;-1.37;75.01;96614.91;5031376;28;20436;-56
2022/01/15 07:27:39;;;;;;;1.02;0.80;;;;;;;-1.32;74.55;96601.94;5031850;28;20053;-55
2022/01/15 07:30:09;;;;;;;1.45;0.60;;;;;;;-1.37;74.27;96609.47;5029999;28;20128;-56
2022/01/15 07:32:36;;;;;;;3.83;0.80;;;;;;;-1.47;74.92;96621.56;5032000;28;20058;-54
2022/01/15 07:35:04;;;;;;;3.25;1.00;;;;;;;-1.46;75.03;96614.16;5031245;28;20053;-59
2022/01/15 07:37:32;;;;;;;2.08;0.77;;;;;;;-1.47;75.00;96607.13;5031639;28;20049;-55
2022/01/15 07:39:59;;;;;;;0.77;0.60;;;;;;;-1.48;74.50;96619.16;5031108;28;20508;-55
2022/01/15 07:42:34;;;;;;;0.70;0.65;;;;;;;-1.56;74.24;96622.69;5028217;28;20124;-59
2022/01/15 07:45:11;;;;;;;1.10;0.65;;;;;;;-1.55;74.39;96621.56;5031154;28;20049;-58
2022/01/15 07:47:40;;;;;;;4.05;0.75;;;;;;;-1.53;74.35;96635.69;5034170;28;20084;-58
2022/01/15 07:50:23;;;;;;;1.85;0.77;;;;;;;-1.57;74.28;96645.63;5035169;28;20049;-60
2022/01/15 07:52:55;;;;;;;1.30;0.85;;;;;;;-1.60;74.26;96646.28;5035949;28;20417;-60
2022/01/15 07:55:23;;;;;;;1.83;1.08;;;;;;;-1.59;74.58;96639.72;5033599;28;20565;-60
2022/01/15 07:58:05;;;;;;;2.25;0.90;;;;;;;-1.65;74.35;96650.00;5035265;28;20058;-60
2022/01/15 08:00:32;;;;;;;2.65;0.70;;;;;;;-1.60;74.66;96666.16;5032022;28;20063;-60
2022/01/15 08:02:59;;;;;;;2.35;0.70;;;;;;;-1.53;74.66;96655.56;5034868;28;20524;-61
2022/01/15 08:05:27;;;;;;;1.67;0.88;;;;;;;-1.49;74.57;96666.59;5035676;28;20045;-61
2022/01/15 08:07:54;;;;;;;5.70;0.88;;;;;;;-1.35;74.48;96673.47;5035706;28;20481;-60
2022/01/15 08:10:21;;;;;;;1.45;0.80;;;;;;;-1.39;74.58;96669.00;5035214;28;20056;-61
2022/01/15 08:12:49;;;;;;;2.35;0.70;;;;;;;-1.47;74.41;96677.97;5035551;28;20056;-61
2022/01/15 08:15:18;;;;;;;3.88;0.60;;;;;;;-1.50;75.08;96676.72;5033289;28;20072;-63
2022/01/15 08:17:45;;;;;;;1.50;0.85;;;;;;;-1.56;75.23;96693.56;5035128;28;20057;-62
2022/01/15 08:20:13;;;;;;;6.45;1.60;;;;;;;-1.58;75.18;96693.06;5034377;28;20413;-62
2022/01/15 08:22:42;;;;;;;2.00;1.10;;;;;;;-1.55;74.97;96687.78;5035065;28;20452;-64
2022/01/15 08:25:10;;;;;;;1.88;0.90;;;;;;;-1.51;74.78;96704.31;5034713;28;20144;-63
2022/01/15 08:27:37;;;;;;;4.43;1.02;;;;;;;-1.61;74.37;96693.72;5035190;28;20071;-63
2022/01/15 08:30:06;;;;;;;5.05;0.93;;;;;;;-1.64;74.37;96688.91;5026021;28;20051;-60
2022/01/15 08:32:33;;;;;;;6.15;0.93;;;;;;;-1.76;74.78;96710.59;5034991;28;20128;-59
2022/01/15 08:35:00;;;;;;;1.98;1.10;;;;;;;-1.77;75.25;96709.00;5034469;28;20053;-60
2022/01/15 08:37:27;;;;;;;2.33;0.90;;;;;;;-1.76;74.37;96705.13;5035023;28;20049;-62
2022/01/15 08:39:53;;;;;;;4.63;1.90;;;;;;;-1.74;74.11;96719.25;5034358;28;20038;-59
2022/01/15 08:42:20;;;;;;;3.63;1.77;;;;;;;-1.62;74.08;96714.75;5030770;28;20129;-59
2022/01/15 08:44:47;;;;;;;2.17;0.90;;;;;;;-1.51;73.67;96731.56;5029911;28;20448;-60
2022/01/15 08:47:15;;;;;;;1.40;0.88;;;;;;;-1.51;72.45;96715.19;5031366;28;20057;-60
2022/01/15 08:49:42;;;;;;;5.60;1.00;;;;;;;-1.50;72.24;96727.69;5034081;28;20449;-59
2022/01/15 08:52:09;;;;;;;5.68;0.98;;;;;;;-1.55;71.66;96734.13;5034329;28;20504;-60
2022/01/15 08:54:36;;;;;;;3.00;0.93;;;;;;;-1.50;71.91;96727.69;5032063;28;20144;-60
2022/01/15 08:57:04;;;;;;;1.63;1.00;;;;;;;-1.49;71.44;96749.19;5033738;28;20500;-61
2022/01/15 08:59:31;;;;;;;2.75;1.27;;;;;;;-1.47;71.59;96743.41;5032955;28;20080;-61
2022/01/15 09:01:59;;;;;;;2.47;0.60;;;;;;;-1.43;71.67;96761.50;5032618;28;20060;-60
2022/01/15 09:04:27;;;;;;;5.35;1.00;;;;;;;-1.51;70.72;96747.91;5034319;28;20530;-61
2022/01/15 09:06:54;;;;;;;1.85;0.93;;;;;;;-1.45;71.38;96754.78;5033715;28;20080;-61
2022/01/15 09:09:21;;;;;;;1.42;0.90;;;;;;;-1.42;70.92;96767.78;5034230;28;20045;-62
2022/01/15 09:11:48;;;;;;;2.65;1.13;;;;;;;-1.37;70.74;96770.31;5034029;28;20056;-61
2022/01/15 09:14:16;;;;;;;1.75;0.82;;;;;;;-1.39;70.41;96767.91;5034141;28;20048;-61
2022/01/15 09:16:43;;;;;;;1.50;0.77;;;;;;;-1.34;70.78;96781.38;5033755;28;20132;-61
2022/01/15 09:19:11;;;;;;;1.80;0.90;;;;;;;-1.25;70.56;96773.19;5025586;28;20439;-61
2022/01/15 09:21:38;;;;;;;1.65;0.90;;;;;;;-1.19;70.35;96769.19;5033357;28;20415;-61
2022/01/15 09:24:05;;;;;;;2.10;1.00;;;;;;;-1.23;70.71;96779.94;5034012;28;20505;-60
2022/01/15 09:26:48;;;;;;;7.38;2.38;;;;;;;-1.20;71.29;96786.66;5033648;28;20128;-60
2022/01/15 09:32:04;;;;;;;2.22;1.30;;;;;;;-1.51;72.19;96799.69;5033305;28;20132;-60
2022/01/15 09:34:34;;;;;;;2.08;1.13;;;;;;;-1.45;72.57;96798.41;5034140;28;20053;-60
2022/01/15 09:37:03;;;;;;;2.50;1.20;;;;;;;-1.24;72.32;96797.41;5033511;28;20101;-59
2022/01/15 09:39:31;;;;;;;5.60;1.05;;;;;;;-1.19;71.96;96799.19;5033747;28;20103;-60
2022/01/15 09:41:58;;;;;;;1.88;1.00;;;;;;;-1.01;71.80;96795.28;5033431;28;20063;-60
2022/01/15 09:44:26;;;;;;;1.85;1.13;;;;;;;-0.99;71.57;96804.72;5034053;28;20049;-59
2022/01/15 09:46:54;;;;;;;1.20;0.75;;;;;;;-0.96;70.93;96808.72;5033509;28;20051;-57
2022/01/15 09:49:23;;;;;;;1.67;0.90;;;;;;;-1.09;70.81;96794.19;5032065;28;20045;-56
2022/01/15 09:51:50;;;;;;;2.45;0.90;;;;;;;-1.13;71.45;96816.97;5033255;28;20112;-59
2022/01/15 09:54:18;;;;;;;1.83;0.85;;;;;;;-1.16;71.36;96820.34;5033150;28;20057;-59
2022/01/15 09:56:49;;;;;;;2.25;0.82;;;;;;;-1.17;71.63;96824.19;5029264;28;20508;-56
2022/01/15 09:59:17;;;;;;;4.22;1.10;;;;;;;-1.19;71.38;96807.34;5033172;28;20049;-58
2022/01/15 10:01:46;;;;;;;1.58;0.85;;;;;;;-1.17;71.25;96835.91;5032704;28;20147;-58
2022/01/15 10:04:13;;;;;;;2.10;0.82;;;;;;;-1.19;70.81;96842.81;5032959;28;20049;-59
2022/01/15 10:07:06;;;;;;;11.85;3.75;;;;;;;-1.11;70.90;96839.25;5033191;28;20053;-59
2022/01/15 10:09:35;;;;;;;2.33;1.00;;;;;;;-1.09;70.53;96837.00;5032932;28;20092;-58
2022/01/15 10:12:03;;;;;;;8.02;1.08;;;;;;;-1.14;70.22;96856.25;5032851;28;20053;-59
2022/01/15 10:14:35;;;;;;;1.40;0.77;;;;;;;-1.22;69.56;96865.28;5033276;28;20049;-58
2022/01/15 10:17:25;;;;;;;1.30;0.80;;;;;;;-1.36;70.98;96870.09;5028871;28;20562;-57
2022/01/15 10:19:53;;;;;;;6.18;0.95;;;;;;;-1.39;71.24;96870.72;5026564;28;20083;-62
2022/01/15 10:22:23;;;;;;;1.25;0.70;;;;;;;-1.38;70.88;96864.94;5031237;28;20060;-60
2022/01/15 10:25:10;;;;;;;4.72;1.00;;;;;;;-1.39;70.93;96884.34;5031723;28;20053;-59
2022/01/15 10:27:42;;;;;;;6.43;1.27;;;;;;;-1.34;70.95;96876.81;5026658;28;20053;-61
2022/01/15 10:30:21;;;;;;;2.00;0.75;;;;;;;-1.31;70.78;96881.63;5032014;28;20045;-58
2022/01/15 10:33:07;;;;;;;1.48;0.90;;;;;;;-1.13;70.27;96902.28;5033377;28;20061;-58
2022/01/15 10:35:39;;;;;;;0.90;0.73;;;;;;;-1.06;69.89;96885.47;5032523;28;20400;-58
2022/01/15 10:38:17;;;;;;;1.50;0.80;;;;;;;-1.13;69.10;96888.66;5031127;28;20052;-58
2022/01/15 10:40:53;;;;;;;1.10;0.60;;;;;;;-1.28;69.76;96888.38;5012294;28;20052;-56
2022/01/15 10:43:31;;;;;;;2.15;1.02;;;;;;;-1.39;69.78;96908.88;5030602;28;20042;-58
2022/01/15 10:46:01;;;;;;;2.47;1.10;;;;;;;-1.40;69.92;96896.34;5028015;28;20492;-56
2022/01/15 10:48:34;;;;;;;8.30;1.45;;;;;;;-1.38;69.75;96921.38;5032173;28;20463;-60
2022/01/15 10:51:06;;;;;;;0.95;0.70;;;;;;;-1.36;69.29;96886.44;5029601;28;20128;-57
2022/01/15 10:53:39;;;;;;;1.73;0.85;;;;;;;-1.44;68.85;96922.66;5031859;28;20047;-56
2022/01/15 10:56:09;;;;;;;8.30;1.38;;;;;;;-1.49;69.15;96920.09;5028883;28;20053;-57
2022/01/15 10:58:37;;;;;;;0.83;0.60;;;;;;;-1.54;69.31;96936.63;5031970;28;20513;-58
2022/01/15 11:01:05;;;;;;;3.97;1.17;;;;;;;-1.56;69.06;96947.03;5032339;28;20072;-58
2022/01/15 11:03:39;;;;;;;25.05;7.57;;;;;;;-1.49;69.47;96944.63;5031694;28;20057;-58
2022/01/15 11:06:07;;;;;;;2.90;0.93;;;;;;;-1.44;69.41;96955.38;5032437;28;20402;-57
2022/01/15 11:08:37;;;;;;;1.45;0.88;;;;;;;-1.45;69.59;96951.06;5031750;28;20049;-59
2022/01/15 11:11:09;;;;;;;3.38;1.00;;;;;;;-1.63;71.53;96958.38;5031932;28;20512;-59
2022/01/15 11:13:40;;;;;;;1.67;0.90;;;;;;;-1.68;72.37;96957.75;5031372;28;20095;-56
2022/01/15 11:16:14;;;;;;;1.45;0.60;;;;;;;-1.74;72.44;96962.53;5031892;28;20080;-57
2022/01/15 11:18:49;;;;;;;2.83;0.90;;;;;;;-1.90;73.30;96983.97;5019577;28;20072;-54
2022/01/15 11:21:18;;;;;;;2.03;0.80;;;;;;;-1.86;73.21;96987.66;5030936;28;20056;-57
2022/01/15 11:23:47;;;;;;;2.88;0.95;;;;;;;-1.79;73.35;96991.84;5031481;28;20564;-56
2022/01/15 11:26:20;;;;;;;1.13;0.70;;;;;;;-1.81;72.72;96988.66;5030449;28;20049;-59
2022/01/15 11:28:47;;;;;;;2.78;0.93;;;;;;;-1.83;73.20;96988.16;5031289;28;20056;-62
2022/01/15 11:31:31;;;;;;;1.83;0.70;;;;;;;-1.81;73.47;96992.16;5031673;28;20464;-56
2022/01/15 11:34:04;;;;;;;3.92;0.95;;;;;;;-1.81;72.76;97010.44;5031821;28;20053;-56
2022/01/15 11:36:36;;;;;;;9.38;1.25;;;;;;;-1.79;72.45;97024.53;5032168;28;20053;-58
2022/01/15 11:39:06;;;;;;;1.80;0.80;;;;;;;-1.79;72.45;97025.34;5031506;28;20049;-59
2022/01/15 11:41:39;;;;;;;4.68;1.35;;;;;;;-1.74;72.83;97021.66;5031560;28;20049;-59
2022/01/15 11:44:12;;;;;;;1.20;0.88;;;;;;;-1.70;72.67;97037.06;5031021;28;20049;-57
2022/01/15 11:46:49;;;;;;;1.27;0.88;;;;;;;-1.67;72.31;97027.47;5031789;28;20416;-60
2022/01/15 11:49:44;;;;;;;3.28;1.10;;;;;;;-1.70;72.72;97033.53;5031651;28;20053;-62
2022/01/15 11:52:12;;;;;;;1.02;0.68;;;;;;;-1.81;73.90;97048.56;5031091;28;20052;-58
2022/01/15 11:54:49;;;;;;;2.45;0.90;;;;;;;-1.83;74.47;97062.50;5031673;28;20045;-60
2022/01/15 11:57:27;;;;;;;3.50;0.73;;;;;;;-1.81;74.66;97075.81;5031194;28;20075;-60
2022/01/15 12:00:00;;;;;;;2.30;0.80;;;;;;;-1.79;75.12;97073.56;5031358;28;20114;-60
2022/01/15 12:02:38;;;;;;;1.50;0.77;;;;;;;-1.88;74.84;97087.97;5030897;28;20053;-58
2022/01/15 12:05:17;;;;;;;3.05;1.08;;;;;;;-1.91;74.98;97104.94;5031481;28;20072;-61
2022/01/15 12:08:11;;;;;;;3.58;1.02;;;;;;;-1.93;74.88;97088.09;5031245;28;20057;-60